sensor_id;sensor_type;location;lat;lon;timestamp;P1;durP1;ratioP1;P2;durP2;ratioP2
74904;SDS011;63465;50.862;6.220;2022-10-16T00:00:34;2.40;;;1.57;;
74904;SDS011;63465;50.862;6.220;2022-10-16T00:03:02;2.53;;;2.13;;
74904;SDS011;63465;50.862;6.220;2022-10-16T00:05:29;1.60;;;1.50;;
74904;SDS011;63465;50.862;6.220;2022-10-16T00:07:57;1.40;;;1.30;;
74904;SDS011;63465;50.862;6.220;2022-10-16T00:10:24;1.30;;;1.20;;
74904;SDS011;63465;50.862;6.220;2022-10-16T00:12:51;2.90;;;1.37;;
74904;SDS011;63465;50.862;6.220;2022-10-16T00:15:17;1.50;;;1.40;;
74904;SDS011;63465;50.862;6.220;2022-10-16T00:17:44;2.23;;;1.70;;
74904;SDS011;63465;50.862;6.220;2022-10-16T00:20:11;1.60;;;1.50;;
74904;SDS011;63465;50.862;6.220;2022-10-16T00:22:57;2.50;;;1.33;;
74904;SDS011;63465;50.862;6.220;2022-10-16T00:25:24;1.63;;;1.57;;
74904;SDS011;63465;50.862;6.220;2022-10-16T00:27:51;1.50;;;1.40;;
74904;SDS011;63465;50.862;6.220;2022-10-16T00:30:17;1.30;;;1.30;;
74904;SDS011;63465;50.862;6.220;2022-10-16T00:32:44;1.20;;;1.20;;
74904;SDS011;63465;50.862;6.220;2022-10-16T00:35:11;1.93;;;1.10;;
74904;SDS011;63465;50.862;6.220;2022-10-16T00:37:37;1.30;;;1.30;;
74904;SDS011;63465;50.862;6.220;2022-10-16T00:40:06;1.10;;;1.10;;
74904;SDS011;63465;50.862;6.220;2022-10-16T00:42:33;1.20;;;1.20;;
74904;SDS011;63465;50.862;6.220;2022-10-16T00:45:00;2.90;;;1.27;;
74904;SDS011;63465;50.862;6.220;2022-10-16T00:47:28;2.00;;;1.33;;
74904;SDS011;63465;50.862;6.220;2022-10-16T00:49:58;2.93;;;1.40;;
74904;SDS011;63465;50.862;6.220;2022-10-16T00:52:28;1.17;;;1.17;;
74904;SDS011;63465;50.862;6.220;2022-10-16T00:54:55;5.13;;;1.50;;
74904;SDS011;63465;50.862;6.220;2022-10-16T00:57:24;1.67;;;1.57;;
74904;SDS011;63465;50.862;6.220;2022-10-16T00:59:51;2.30;;;1.40;;
74904;SDS011;63465;50.862;6.220;2022-10-16T01:02:19;1.50;;;1.40;;
74904;SDS011;63465;50.862;6.220;2022-10-16T01:04:47;1.20;;;1.20;;
74904;SDS011;63465;50.862;6.220;2022-10-16T01:07:20;2.50;;;1.57;;
74904;SDS011;63465;50.862;6.220;2022-10-16T01:10:06;4.30;;;2.00;;
74904;SDS011;63465;50.862;6.220;2022-10-16T01:12:42;1.50;;;1.40;;
74904;SDS011;63465;50.862;6.220;2022-10-16T01:15:17;3.47;;;1.70;;
74904;SDS011;63465;50.862;6.220;2022-10-16T01:17:49;1.80;;;1.70;;
74904;SDS011;63465;50.862;6.220;2022-10-16T01:20:25;1.37;;;1.27;;
74904;SDS011;63465;50.862;6.220;2022-10-16T01:25:55;2.30;;;1.43;;
74904;SDS011;63465;50.862;6.220;2022-10-16T01:28:36;1.37;;;1.27;;
74904;SDS011;63465;50.862;6.220;2022-10-16T01:31:08;1.43;;;1.30;;
74904;SDS011;63465;50.862;6.220;2022-10-16T01:33:38;2.57;;;1.40;;
74904;SDS011;63465;50.862;6.220;2022-10-16T01:36:09;3.70;;;1.27;;
74904;SDS011;63465;50.862;6.220;2022-10-16T01:38:40;4.97;;;1.50;;
74904;SDS011;63465;50.862;6.220;2022-10-16T01:41:09;1.27;;;1.17;;
74904;SDS011;63465;50.862;6.220;2022-10-16T01:43:43;1.17;;;1.17;;
74904;SDS011;63465;50.862;6.220;2022-10-16T01:46:11;1.83;;;1.73;;
74904;SDS011;63465;50.862;6.220;2022-10-16T01:48:42;5.10;;;3.40;;
74904;SDS011;63465;50.862;6.220;2022-10-16T01:51:09;4.00;;;2.27;;
74904;SDS011;63465;50.862;6.220;2022-10-16T01:53:39;2.23;;;1.93;;
74904;SDS011;63465;50.862;6.220;2022-10-16T01:56:09;2.17;;;1.97;;
74904;SDS011;63465;50.862;6.220;2022-10-16T01:58:39;5.40;;;1.87;;
74904;SDS011;63465;50.862;6.220;2022-10-16T02:01:12;4.10;;;1.90;;
74904;SDS011;63465;50.862;6.220;2022-10-16T02:03:41;2.87;;;2.67;;
74904;SDS011;63465;50.862;6.220;2022-10-16T02:06:11;3.33;;;2.37;;
74904;SDS011;63465;50.862;6.220;2022-10-16T02:08:38;2.23;;;2.13;;
74904;SDS011;63465;50.862;6.220;2022-10-16T02:11:09;3.67;;;2.17;;
74904;SDS011;63465;50.862;6.220;2022-10-16T02:13:37;2.00;;;1.70;;
74904;SDS011;63465;50.862;6.220;2022-10-16T02:16:08;2.20;;;2.10;;
74904;SDS011;63465;50.862;6.220;2022-10-16T02:18:37;2.40;;;1.50;;
74904;SDS011;63465;50.862;6.220;2022-10-16T02:21:06;2.80;;;1.80;;
74904;SDS011;63465;50.862;6.220;2022-10-16T02:23:45;1.73;;;1.63;;
74904;SDS011;63465;50.862;6.220;2022-10-16T02:26:19;2.47;;;2.00;;
74904;SDS011;63465;50.862;6.220;2022-10-16T02:28:55;3.73;;;3.43;;
74904;SDS011;63465;50.862;6.220;2022-10-16T02:31:27;12.27;;;8.37;;
74904;SDS011;63465;50.862;6.220;2022-10-16T02:33:58;28.97;;;19.50;;
74904;SDS011;63465;50.862;6.220;2022-10-16T02:36:26;10.70;;;8.67;;
74904;SDS011;63465;50.862;6.220;2022-10-16T02:38:53;10.13;;;7.00;;
74904;SDS011;63465;50.862;6.220;2022-10-16T02:41:21;2.87;;;2.10;;
74904;SDS011;63465;50.862;6.220;2022-10-16T02:43:49;3.87;;;1.50;;
74904;SDS011;63465;50.862;6.220;2022-10-16T02:46:16;1.30;;;1.30;;
74904;SDS011;63465;50.862;6.220;2022-10-16T02:48:43;4.30;;;1.33;;
74904;SDS011;63465;50.862;6.220;2022-10-16T02:51:11;4.63;;;1.40;;
74904;SDS011;63465;50.862;6.220;2022-10-16T02:53:38;4.00;;;1.27;;
74904;SDS011;63465;50.862;6.220;2022-10-16T02:56:05;4.83;;;1.93;;
74904;SDS011;63465;50.862;6.220;2022-10-16T02:58:32;3.00;;;1.50;;
74904;SDS011;63465;50.862;6.220;2022-10-16T03:00:59;1.23;;;1.10;;
74904;SDS011;63465;50.862;6.220;2022-10-16T03:03:26;4.70;;;1.53;;
74904;SDS011;63465;50.862;6.220;2022-10-16T03:05:52;1.10;;;1.10;;
74904;SDS011;63465;50.862;6.220;2022-10-16T03:08:20;1.10;;;1.10;;
74904;SDS011;63465;50.862;6.220;2022-10-16T03:10:48;1.20;;;1.20;;
74904;SDS011;63465;50.862;6.220;2022-10-16T03:13:15;1.57;;;1.23;;
74904;SDS011;63465;50.862;6.220;2022-10-16T03:15:43;2.60;;;1.57;;
74904;SDS011;63465;50.862;6.220;2022-10-16T03:18:09;2.07;;;1.97;;
74904;SDS011;63465;50.862;6.220;2022-10-16T03:20:36;4.30;;;1.83;;
74904;SDS011;63465;50.862;6.220;2022-10-16T03:23:03;1.87;;;1.57;;
74904;SDS011;63465;50.862;6.220;2022-10-16T03:25:31;2.30;;;2.10;;
74904;SDS011;63465;50.862;6.220;2022-10-16T03:27:57;1.63;;;1.53;;
74904;SDS011;63465;50.862;6.220;2022-10-16T03:30:24;1.90;;;1.80;;
74904;SDS011;63465;50.862;6.220;2022-10-16T03:32:51;5.77;;;5.23;;
74904;SDS011;63465;50.862;6.220;2022-10-16T03:35:19;21.00;;;15.03;;
74904;SDS011;63465;50.862;6.220;2022-10-16T03:37:45;19.63;;;15.70;;
74904;SDS011;63465;50.862;6.220;2022-10-16T03:40:12;45.70;;;33.30;;
74904;SDS011;63465;50.862;6.220;2022-10-16T03:42:41;35.87;;;27.23;;
74904;SDS011;63465;50.862;6.220;2022-10-16T03:45:08;28.03;;;20.93;;
74904;SDS011;63465;50.862;6.220;2022-10-16T03:47:36;52.47;;;36.13;;
74904;SDS011;63465;50.862;6.220;2022-10-16T03:50:03;64.63;;;46.03;;
74904;SDS011;63465;50.862;6.220;2022-10-16T03:52:31;66.17;;;42.37;;
74904;SDS011;63465;50.862;6.220;2022-10-16T03:54:58;77.10;;;47.70;;
74904;SDS011;63465;50.862;6.220;2022-10-16T03:57:24;54.43;;;35.30;;
74904;SDS011;63465;50.862;6.220;2022-10-16T03:59:52;44.40;;;23.30;;
74904;SDS011;63465;50.862;6.220;2022-10-16T04:02:19;11.53;;;10.27;;
74904;SDS011;63465;50.862;6.220;2022-10-16T04:04:46;6.33;;;5.00;;
74904;SDS011;63465;50.862;6.220;2022-10-16T04:07:12;5.90;;;3.50;;
74904;SDS011;63465;50.862;6.220;2022-10-16T04:09:39;3.80;;;2.27;;
74904;SDS011;63465;50.862;6.220;2022-10-16T04:12:06;2.20;;;1.67;;
74904;SDS011;63465;50.862;6.220;2022-10-16T04:14:32;1.83;;;1.70;;
74904;SDS011;63465;50.862;6.220;2022-10-16T04:17:01;2.40;;;1.57;;
74904;SDS011;63465;50.862;6.220;2022-10-16T04:19:28;2.53;;;1.80;;
74904;SDS011;63465;50.862;6.220;2022-10-16T04:21:55;3.73;;;1.97;;
74904;SDS011;63465;50.862;6.220;2022-10-16T04:24:21;2.00;;;1.90;;
74904;SDS011;63465;50.862;6.220;2022-10-16T04:26:48;2.53;;;2.30;;
74904;SDS011;63465;50.862;6.220;2022-10-16T04:29:14;4.63;;;1.80;;
74904;SDS011;63465;50.862;6.220;2022-10-16T04:31:41;2.10;;;2.00;;
74904;SDS011;63465;50.862;6.220;2022-10-16T04:34:09;5.33;;;2.03;;
74904;SDS011;63465;50.862;6.220;2022-10-16T04:36:36;2.07;;;1.97;;
74904;SDS011;63465;50.862;6.220;2022-10-16T04:39:02;3.90;;;3.60;;
74904;SDS011;63465;50.862;6.220;2022-10-16T04:41:29;7.53;;;6.73;;
74904;SDS011;63465;50.862;6.220;2022-10-16T04:43:56;7.23;;;6.53;;
74904;SDS011;63465;50.862;6.220;2022-10-16T04:46:23;10.80;;;7.23;;
74904;SDS011;63465;50.862;6.220;2022-10-16T04:48:50;7.53;;;6.30;;
74904;SDS011;63465;50.862;6.220;2022-10-16T04:51:18;8.97;;;5.30;;
74904;SDS011;63465;50.862;6.220;2022-10-16T04:53:45;5.93;;;5.40;;
74904;SDS011;63465;50.862;6.220;2022-10-16T04:56:11;7.37;;;5.80;;
74904;SDS011;63465;50.862;6.220;2022-10-16T04:58:38;7.53;;;6.67;;
74904;SDS011;63465;50.862;6.220;2022-10-16T05:01:05;9.53;;;6.40;;
74904;SDS011;63465;50.862;6.220;2022-10-16T05:03:31;4.90;;;4.40;;
74904;SDS011;63465;50.862;6.220;2022-10-16T05:05:58;7.33;;;3.60;;
74904;SDS011;63465;50.862;6.220;2022-10-16T05:08:26;15.83;;;3.40;;
74904;SDS011;63465;50.862;6.220;2022-10-16T05:10:53;3.10;;;2.90;;
74904;SDS011;63465;50.862;6.220;2022-10-16T05:13:19;3.60;;;3.40;;
74904;SDS011;63465;50.862;6.220;2022-10-16T05:15:46;3.23;;;2.93;;
74904;SDS011;63465;50.862;6.220;2022-10-16T05:18:14;2.90;;;2.67;;
74904;SDS011;63465;50.862;6.220;2022-10-16T05:20:41;3.23;;;3.03;;
74904;SDS011;63465;50.862;6.220;2022-10-16T05:23:08;3.53;;;2.57;;
74904;SDS011;63465;50.862;6.220;2022-10-16T05:25:36;3.27;;;2.97;;
74904;SDS011;63465;50.862;6.220;2022-10-16T05:28:03;3.10;;;2.80;;
74904;SDS011;63465;50.862;6.220;2022-10-16T05:30:30;2.83;;;2.50;;
74904;SDS011;63465;50.862;6.220;2022-10-16T05:32:57;3.20;;;2.60;;
74904;SDS011;63465;50.862;6.220;2022-10-16T05:35:23;3.00;;;2.70;;
74904;SDS011;63465;50.862;6.220;2022-10-16T05:37:50;2.47;;;2.30;;
74904;SDS011;63465;50.862;6.220;2022-10-16T05:40:18;4.07;;;3.70;;
74904;SDS011;63465;50.862;6.220;2022-10-16T05:42:46;2.73;;;2.63;;
74904;SDS011;63465;50.862;6.220;2022-10-16T05:45:13;3.00;;;2.80;;
74904;SDS011;63465;50.862;6.220;2022-10-16T05:47:39;3.53;;;3.17;;
74904;SDS011;63465;50.862;6.220;2022-10-16T05:50:07;3.50;;;2.97;;
74904;SDS011;63465;50.862;6.220;2022-10-16T05:52:34;2.20;;;2.10;;
74904;SDS011;63465;50.862;6.220;2022-10-16T05:55:00;3.40;;;2.70;;
74904;SDS011;63465;50.862;6.220;2022-10-16T05:57:27;3.13;;;2.30;;
74904;SDS011;63465;50.862;6.220;2022-10-16T05:59:56;2.90;;;2.70;;
74904;SDS011;63465;50.862;6.220;2022-10-16T06:02:23;2.77;;;2.57;;
74904;SDS011;63465;50.862;6.220;2022-10-16T06:04:51;2.73;;;2.63;;
74904;SDS011;63465;50.862;6.220;2022-10-16T06:07:18;2.60;;;2.40;;
74904;SDS011;63465;50.862;6.220;2022-10-16T06:09:47;2.50;;;2.03;;
74904;SDS011;63465;50.862;6.220;2022-10-16T06:12:14;4.93;;;2.37;;
74904;SDS011;63465;50.862;6.220;2022-10-16T06:14:41;2.60;;;2.40;;
74904;SDS011;63465;50.862;6.220;2022-10-16T06:17:09;2.53;;;2.33;;
74904;SDS011;63465;50.862;6.220;2022-10-16T06:19:36;2.43;;;2.23;;
74904;SDS011;63465;50.862;6.220;2022-10-16T06:22:02;2.63;;;2.53;;
74904;SDS011;63465;50.862;6.220;2022-10-16T06:24:29;2.70;;;2.50;;
74904;SDS011;63465;50.862;6.220;2022-10-16T06:26:56;3.50;;;2.33;;
74904;SDS011;63465;50.862;6.220;2022-10-16T06:29:23;3.03;;;2.70;;
74904;SDS011;63465;50.862;6.220;2022-10-16T06:31:49;3.13;;;2.73;;
74904;SDS011;63465;50.862;6.220;2022-10-16T06:34:17;3.83;;;2.70;;
74904;SDS011;63465;50.862;6.220;2022-10-16T06:36:44;2.67;;;2.40;;
74904;SDS011;63465;50.862;6.220;2022-10-16T06:39:11;2.47;;;2.20;;
74904;SDS011;63465;50.862;6.220;2022-10-16T06:41:37;2.80;;;2.67;;
74904;SDS011;63465;50.862;6.220;2022-10-16T06:44:14;2.57;;;2.37;;
74904;SDS011;63465;50.862;6.220;2022-10-16T06:46:41;2.70;;;2.60;;
74904;SDS011;63465;50.862;6.220;2022-10-16T06:49:07;16.33;;;3.50;;
74904;SDS011;63465;50.862;6.220;2022-10-16T06:51:35;5.50;;;2.57;;
74904;SDS011;63465;50.862;6.220;2022-10-16T06:54:06;2.33;;;2.10;;
74904;SDS011;63465;50.862;6.220;2022-10-16T06:56:33;2.10;;;2.00;;
74904;SDS011;63465;50.862;6.220;2022-10-16T06:59:00;9.33;;;1.90;;
74904;SDS011;63465;50.862;6.220;2022-10-16T07:01:27;6.30;;;2.00;;
74904;SDS011;63465;50.862;6.220;2022-10-16T07:03:54;2.60;;;2.30;;
74904;SDS011;63465;50.862;6.220;2022-10-16T07:06:22;5.60;;;2.17;;
74904;SDS011;63465;50.862;6.220;2022-10-16T07:08:51;7.93;;;4.03;;
74904;SDS011;63465;50.862;6.220;2022-10-16T07:11:19;5.23;;;2.30;;
74904;SDS011;63465;50.862;6.220;2022-10-16T07:13:47;5.03;;;2.87;;
74904;SDS011;63465;50.862;6.220;2022-10-16T07:16:15;2.80;;;2.60;;
74904;SDS011;63465;50.862;6.220;2022-10-16T07:18:44;2.33;;;2.23;;
74904;SDS011;63465;50.862;6.220;2022-10-16T07:21:12;3.93;;;2.17;;
74904;SDS011;63465;50.862;6.220;2022-10-16T07:23:40;2.23;;;2.03;;
74904;SDS011;63465;50.862;6.220;2022-10-16T07:26:09;2.60;;;2.40;;
74904;SDS011;63465;50.862;6.220;2022-10-16T07:28:36;2.30;;;2.10;;
74904;SDS011;63465;50.862;6.220;2022-10-16T07:31:05;2.13;;;2.03;;
74904;SDS011;63465;50.862;6.220;2022-10-16T07:33:34;2.50;;;2.30;;
74904;SDS011;63465;50.862;6.220;2022-10-16T07:36:01;5.13;;;2.37;;
74904;SDS011;63465;50.862;6.220;2022-10-16T07:38:28;4.93;;;2.67;;
74904;SDS011;63465;50.862;6.220;2022-10-16T07:40:58;2.07;;;1.90;;
74904;SDS011;63465;50.862;6.220;2022-10-16T07:43:27;3.47;;;2.07;;
74904;SDS011;63465;50.862;6.220;2022-10-16T07:45:55;2.00;;;1.90;;
74904;SDS011;63465;50.862;6.220;2022-10-16T07:48:22;2.00;;;1.90;;
74904;SDS011;63465;50.862;6.220;2022-10-16T07:50:50;2.33;;;2.10;;
74904;SDS011;63465;50.862;6.220;2022-10-16T07:53:16;3.40;;;1.70;;
74904;SDS011;63465;50.862;6.220;2022-10-16T07:55:43;1.93;;;1.83;;
74904;SDS011;63465;50.862;6.220;2022-10-16T07:58:10;2.40;;;1.50;;
74904;SDS011;63465;50.862;6.220;2022-10-16T08:00:38;2.40;;;1.63;;
74904;SDS011;63465;50.862;6.220;2022-10-16T08:03:04;4.60;;;2.03;;
74904;SDS011;63465;50.862;6.220;2022-10-16T08:05:31;5.20;;;1.60;;
74904;SDS011;63465;50.862;6.220;2022-10-16T08:07:59;2.60;;;1.50;;
74904;SDS011;63465;50.862;6.220;2022-10-16T08:10:28;2.93;;;1.40;;
74904;SDS011;63465;50.862;6.220;2022-10-16T08:12:56;2.10;;;1.80;;
74904;SDS011;63465;50.862;6.220;2022-10-16T08:15:23;2.23;;;2.10;;
74904;SDS011;63465;50.862;6.220;2022-10-16T08:17:58;1.70;;;1.60;;
74904;SDS011;63465;50.862;6.220;2022-10-16T08:20:26;1.83;;;1.50;;
74904;SDS011;63465;50.862;6.220;2022-10-16T08:22:54;5.13;;;1.27;;
74904;SDS011;63465;50.862;6.220;2022-10-16T08:25:21;1.20;;;1.10;;
74904;SDS011;63465;50.862;6.220;2022-10-16T08:27:49;3.63;;;1.33;;
74904;SDS011;63465;50.862;6.220;2022-10-16T08:30:16;2.30;;;1.57;;
74904;SDS011;63465;50.862;6.220;2022-10-16T08:32:43;1.10;;;1.00;;
74904;SDS011;63465;50.862;6.220;2022-10-16T08:35:11;4.33;;;1.33;;
74904;SDS011;63465;50.862;6.220;2022-10-16T08:37:39;1.53;;;1.33;;
74904;SDS011;63465;50.862;6.220;2022-10-16T08:40:06;1.30;;;1.17;;
74904;SDS011;63465;50.862;6.220;2022-10-16T08:42:47;1.30;;;1.20;;
74904;SDS011;63465;50.862;6.220;2022-10-16T08:48:21;2.40;;;1.10;;
74904;SDS011;63465;50.862;6.220;2022-10-16T08:50:57;2.50;;;1.10;;
74904;SDS011;63465;50.862;6.220;2022-10-16T08:53:24;1.70;;;1.30;;
74904;SDS011;63465;50.862;6.220;2022-10-16T08:55:55;2.80;;;1.10;;
74904;SDS011;63465;50.862;6.220;2022-10-16T08:58:26;1.47;;;1.20;;
74904;SDS011;63465;50.862;6.220;2022-10-16T09:00:55;1.93;;;1.20;;
74904;SDS011;63465;50.862;6.220;2022-10-16T09:03:26;5.93;;;1.27;;
74904;SDS011;63465;50.862;6.220;2022-10-16T09:06:17;7.03;;;1.30;;
74904;SDS011;63465;50.862;6.220;2022-10-16T09:09:02;1.57;;;1.20;;
74904;SDS011;63465;50.862;6.220;2022-10-16T09:11:44;3.60;;;1.10;;
74904;SDS011;63465;50.862;6.220;2022-10-16T09:14:23;1.30;;;1.20;;
74904;SDS011;63465;50.862;6.220;2022-10-16T09:17:11;3.10;;;1.30;;
74904;SDS011;63465;50.862;6.220;2022-10-16T09:19:51;2.03;;;1.00;;
74904;SDS011;63465;50.862;6.220;2022-10-16T09:22:26;5.63;;;1.37;;
74904;SDS011;63465;50.862;6.220;2022-10-16T09:24:55;2.47;;;1.00;;
74904;SDS011;63465;50.862;6.220;2022-10-16T09:27:26;1.27;;;1.17;;
74904;SDS011;63465;50.862;6.220;2022-10-16T09:29:53;4.20;;;0.93;;
74904;SDS011;63465;50.862;6.220;2022-10-16T09:32:20;1.70;;;1.00;;
74904;SDS011;63465;50.862;6.220;2022-10-16T09:34:49;1.80;;;1.10;;
74904;SDS011;63465;50.862;6.220;2022-10-16T09:37:18;2.27;;;1.23;;
74904;SDS011;63465;50.862;6.220;2022-10-16T09:39:49;1.00;;;1.00;;
74904;SDS011;63465;50.862;6.220;2022-10-16T09:42:17;1.70;;;1.10;;
74904;SDS011;63465;50.862;6.220;2022-10-16T09:44:47;1.23;;;0.70;;
74904;SDS011;63465;50.862;6.220;2022-10-16T09:47:15;1.10;;;1.00;;
74904;SDS011;63465;50.862;6.220;2022-10-16T09:49:51;1.00;;;0.90;;
74904;SDS011;63465;50.862;6.220;2022-10-16T09:52:19;5.33;;;1.07;;
74904;SDS011;63465;50.862;6.220;2022-10-16T09:54:51;1.37;;;0.70;;
74904;SDS011;63465;50.862;6.220;2022-10-16T09:57:19;0.97;;;0.87;;
74904;SDS011;63465;50.862;6.220;2022-10-16T09:59:47;4.20;;;0.70;;
74904;SDS011;63465;50.862;6.220;2022-10-16T10:02:16;1.87;;;1.17;;
74904;SDS011;63465;50.862;6.220;2022-10-16T10:04:47;1.10;;;0.90;;
74904;SDS011;63465;50.862;6.220;2022-10-16T10:07:21;1.57;;;1.00;;
74904;SDS011;63465;50.862;6.220;2022-10-16T10:09:52;1.27;;;1.00;;
74904;SDS011;63465;50.862;6.220;2022-10-16T10:12:21;1.80;;;0.80;;
74904;SDS011;63465;50.862;6.220;2022-10-16T10:14:50;2.30;;;0.93;;
74904;SDS011;63465;50.862;6.220;2022-10-16T10:17:19;0.80;;;0.80;;
74904;SDS011;63465;50.862;6.220;2022-10-16T10:19:47;1.90;;;0.80;;
74904;SDS011;63465;50.862;6.220;2022-10-16T10:22:21;1.57;;;0.90;;
74904;SDS011;63465;50.862;6.220;2022-10-16T10:25:12;1.67;;;0.90;;
74904;SDS011;63465;50.862;6.220;2022-10-16T10:27:53;0.97;;;0.80;;
74904;SDS011;63465;50.862;6.220;2022-10-16T10:30:33;5.33;;;2.93;;
74904;SDS011;63465;50.862;6.220;2022-10-16T10:33:09;5.40;;;2.67;;
74904;SDS011;63465;50.862;6.220;2022-10-16T10:35:44;1.40;;;1.10;;
74904;SDS011;63465;50.862;6.220;2022-10-16T10:38:20;2.20;;;1.00;;
74904;SDS011;63465;50.862;6.220;2022-10-16T10:40:57;0.80;;;0.80;;
74904;SDS011;63465;50.862;6.220;2022-10-16T10:43:39;1.07;;;0.90;;
74904;SDS011;63465;50.862;6.220;2022-10-16T10:46:18;0.97;;;0.97;;
74904;SDS011;63465;50.862;6.220;2022-10-16T10:48:54;1.07;;;0.90;;
74904;SDS011;63465;50.862;6.220;2022-10-16T10:51:35;2.30;;;1.03;;
74904;SDS011;63465;50.862;6.220;2022-10-16T10:54:13;2.30;;;0.97;;
74904;SDS011;63465;50.862;6.220;2022-10-16T10:56:50;2.40;;;1.10;;
74904;SDS011;63465;50.862;6.220;2022-10-16T10:59:28;1.10;;;1.00;;
74904;SDS011;63465;50.862;6.220;2022-10-16T11:02:13;1.27;;;0.70;;
74904;SDS011;63465;50.862;6.220;2022-10-16T11:04:50;2.33;;;1.10;;
74904;SDS011;63465;50.862;6.220;2022-10-16T11:07:34;6.73;;;5.90;;
74904;SDS011;63465;50.862;6.220;2022-10-16T11:10:05;3.60;;;0.93;;
74904;SDS011;63465;50.862;6.220;2022-10-16T11:12:41;3.53;;;0.90;;
74904;SDS011;63465;50.862;6.220;2022-10-16T11:15:11;5.77;;;0.80;;
74904;SDS011;63465;50.862;6.220;2022-10-16T11:17:42;1.57;;;0.83;;
74904;SDS011;63465;50.862;6.220;2022-10-16T11:20:13;2.13;;;0.90;;
74904;SDS011;63465;50.862;6.220;2022-10-16T11:22:44;0.83;;;0.80;;
74904;SDS011;63465;50.862;6.220;2022-10-16T11:25:18;1.40;;;0.90;;
74904;SDS011;63465;50.862;6.220;2022-10-16T11:27:50;0.90;;;0.60;;
74904;SDS011;63465;50.862;6.220;2022-10-16T11:30:22;1.00;;;0.90;;
74904;SDS011;63465;50.862;6.220;2022-10-16T11:33:00;1.47;;;0.70;;
74904;SDS011;63465;50.862;6.220;2022-10-16T11:35:38;1.50;;;0.87;;
74904;SDS011;63465;50.862;6.220;2022-10-16T11:38:10;3.00;;;1.00;;
74904;SDS011;63465;50.862;6.220;2022-10-16T11:40:42;1.03;;;0.80;;
74904;SDS011;63465;50.862;6.220;2022-10-16T11:43:15;1.80;;;1.07;;
74904;SDS011;63465;50.862;6.220;2022-10-16T11:45:48;2.60;;;0.90;;
74904;SDS011;63465;50.862;6.220;2022-10-16T11:48:20;2.10;;;0.77;;
74904;SDS011;63465;50.862;6.220;2022-10-16T11:50:53;2.30;;;0.80;;
74904;SDS011;63465;50.862;6.220;2022-10-16T11:53:23;2.10;;;0.80;;
74904;SDS011;63465;50.862;6.220;2022-10-16T11:56:02;1.30;;;0.80;;
74904;SDS011;63465;50.862;6.220;2022-10-16T11:58:31;1.73;;;1.10;;
74904;SDS011;63465;50.862;6.220;2022-10-16T12:01:07;3.80;;;0.80;;
74904;SDS011;63465;50.862;6.220;2022-10-16T12:03:45;1.47;;;0.80;;
74904;SDS011;63465;50.862;6.220;2022-10-16T12:06:27;0.70;;;0.70;;
74904;SDS011;63465;50.862;6.220;2022-10-16T12:08:58;2.97;;;0.80;;
74904;SDS011;63465;50.862;6.220;2022-10-16T12:11:34;1.23;;;0.77;;
74904;SDS011;63465;50.862;6.220;2022-10-16T12:14:16;1.97;;;0.80;;
74904;SDS011;63465;50.862;6.220;2022-10-16T12:16:53;1.57;;;0.80;;
74904;SDS011;63465;50.862;6.220;2022-10-16T12:19:22;0.87;;;0.80;;
74904;SDS011;63465;50.862;6.220;2022-10-16T12:21:51;2.77;;;0.97;;
74904;SDS011;63465;50.862;6.220;2022-10-16T12:24:21;2.00;;;1.00;;
74904;SDS011;63465;50.862;6.220;2022-10-16T12:26:56;1.03;;;0.90;;
74904;SDS011;63465;50.862;6.220;2022-10-16T12:29:30;0.83;;;0.80;;
74904;SDS011;63465;50.862;6.220;2022-10-16T12:32:00;0.80;;;0.80;;
74904;SDS011;63465;50.862;6.220;2022-10-16T12:34:29;3.00;;;0.90;;
74904;SDS011;63465;50.862;6.220;2022-10-16T12:37:07;0.70;;;0.70;;
74904;SDS011;63465;50.862;6.220;2022-10-16T12:39:37;2.20;;;0.80;;
74904;SDS011;63465;50.862;6.220;2022-10-16T12:42:05;0.97;;;0.87;;
74904;SDS011;63465;50.862;6.220;2022-10-16T12:44:47;1.03;;;0.93;;
74904;SDS011;63465;50.862;6.220;2022-10-16T12:47:19;1.90;;;0.90;;
74904;SDS011;63465;50.862;6.220;2022-10-16T12:49:48;2.30;;;0.80;;
74904;SDS011;63465;50.862;6.220;2022-10-16T12:52:26;1.80;;;0.87;;
74904;SDS011;63465;50.862;6.220;2022-10-16T12:54:55;1.90;;;0.93;;
74904;SDS011;63465;50.862;6.220;2022-10-16T12:57:30;1.93;;;0.80;;
74904;SDS011;63465;50.862;6.220;2022-10-16T13:00:13;0.70;;;0.70;;
74904;SDS011;63465;50.862;6.220;2022-10-16T13:02:55;1.10;;;1.00;;
74904;SDS011;63465;50.862;6.220;2022-10-16T13:05:54;0.90;;;0.70;;
74904;SDS011;63465;50.862;6.220;2022-10-16T13:08:39;2.60;;;0.70;;
74904;SDS011;63465;50.862;6.220;2022-10-16T13:11:20;1.63;;;1.03;;
74904;SDS011;63465;50.862;6.220;2022-10-16T13:13:57;1.00;;;0.90;;
74904;SDS011;63465;50.862;6.220;2022-10-16T13:16:40;0.67;;;0.67;;
74904;SDS011;63465;50.862;6.220;2022-10-16T13:19:18;3.20;;;0.80;;
74904;SDS011;63465;50.862;6.220;2022-10-16T13:21:51;1.10;;;1.00;;
74904;SDS011;63465;50.862;6.220;2022-10-16T13:24:28;1.60;;;0.90;;
74904;SDS011;63465;50.862;6.220;2022-10-16T13:27:10;3.47;;;1.27;;
74904;SDS011;63465;50.862;6.220;2022-10-16T13:29:44;1.00;;;0.73;;
74904;SDS011;63465;50.862;6.220;2022-10-16T13:32:20;1.70;;;0.80;;
74904;SDS011;63465;50.862;6.220;2022-10-16T13:34:48;1.20;;;0.73;;
74904;SDS011;63465;50.862;6.220;2022-10-16T13:37:18;1.67;;;0.80;;
74904;SDS011;63465;50.862;6.220;2022-10-16T13:39:45;0.87;;;0.70;;
74904;SDS011;63465;50.862;6.220;2022-10-16T13:42:13;2.07;;;0.73;;
74904;SDS011;63465;50.862;6.220;2022-10-16T13:44:43;3.27;;;0.80;;
74904;SDS011;63465;50.862;6.220;2022-10-16T13:47:15;0.80;;;0.80;;
74904;SDS011;63465;50.862;6.220;2022-10-16T13:49:45;0.80;;;0.80;;
74904;SDS011;63465;50.862;6.220;2022-10-16T13:52:16;3.23;;;1.07;;
74904;SDS011;63465;50.862;6.220;2022-10-16T13:54:44;1.17;;;0.80;;
74904;SDS011;63465;50.862;6.220;2022-10-16T13:57:12;1.70;;;0.77;;
74904;SDS011;63465;50.862;6.220;2022-10-16T13:59:40;0.70;;;0.70;;
74904;SDS011;63465;50.862;6.220;2022-10-16T14:02:09;1.30;;;0.83;;
74904;SDS011;63465;50.862;6.220;2022-10-16T14:04:47;2.10;;;1.03;;
74904;SDS011;63465;50.862;6.220;2022-10-16T14:07:18;1.10;;;1.10;;
74904;SDS011;63465;50.862;6.220;2022-10-16T14:09:48;1.20;;;0.83;;
74904;SDS011;63465;50.862;6.220;2022-10-16T14:12:17;1.13;;;1.03;;
74904;SDS011;63465;50.862;6.220;2022-10-16T14:14:45;5.13;;;1.10;;
74904;SDS011;63465;50.862;6.220;2022-10-16T14:17:14;1.27;;;0.80;;
74904;SDS011;63465;50.862;6.220;2022-10-16T14:19:45;0.90;;;0.90;;
74904;SDS011;63465;50.862;6.220;2022-10-16T14:22:20;0.93;;;0.90;;
74904;SDS011;63465;50.862;6.220;2022-10-16T14:24:52;1.30;;;0.90;;
74904;SDS011;63465;50.862;6.220;2022-10-16T14:27:24;3.43;;;0.90;;
74904;SDS011;63465;50.862;6.220;2022-10-16T14:30:05;1.10;;;1.00;;
74904;SDS011;63465;50.862;6.220;2022-10-16T14:32:39;0.70;;;0.70;;
74904;SDS011;63465;50.862;6.220;2022-10-16T14:35:20;1.40;;;0.97;;
74904;SDS011;63465;50.862;6.220;2022-10-16T14:37:51;6.13;;;1.50;;
74904;SDS011;63465;50.862;6.220;2022-10-16T14:40:18;1.27;;;1.10;;
74904;SDS011;63465;50.862;6.220;2022-10-16T14:42:46;1.00;;;0.90;;
74904;SDS011;63465;50.862;6.220;2022-10-16T14:45:15;1.57;;;0.97;;
74904;SDS011;63465;50.862;6.220;2022-10-16T14:47:47;2.10;;;0.90;;
74904;SDS011;63465;50.862;6.220;2022-10-16T14:50:18;1.20;;;1.00;;
74904;SDS011;63465;50.862;6.220;2022-10-16T14:52:44;0.87;;;0.87;;
74904;SDS011;63465;50.862;6.220;2022-10-16T14:55:11;1.30;;;0.90;;
74904;SDS011;63465;50.862;6.220;2022-10-16T14:57:38;0.90;;;0.90;;
74904;SDS011;63465;50.862;6.220;2022-10-16T15:00:08;2.83;;;1.10;;
74904;SDS011;63465;50.862;6.220;2022-10-16T15:02:39;1.20;;;1.10;;
74904;SDS011;63465;50.862;6.220;2022-10-16T15:05:10;1.10;;;1.10;;
74904;SDS011;63465;50.862;6.220;2022-10-16T15:07:40;3.40;;;1.00;;
74904;SDS011;63465;50.862;6.220;2022-10-16T15:10:08;1.87;;;0.97;;